Главная страница
METAR-TAF:

METAR-TAF

Аэропорты :

Цельтвег, Австрия

широта: 47-12N, долгота: 014-45E, высота над уровнем моря: 677 м

Текущие метеонаблюдения

Эта сводка был подготовлена 1 час и 25 минут назад, в 20:50 UTC
Ветер 2 Узел переменных направлений
Температура 8°C
Влажность 71%
Давление 1030 hPa

METAR: LOXZ 192050Z VRB02KT 30KM FEW060SC 08/03 Q1030

Время: 00:15 (22:15 UTC)

Прогноз

Эта сводка был подготовлена 8 часа и 0 минут назад, в 14:15 UTC
Прогноз действительный с 19-го 15 UTC до 19-го 24 UTC
Ветер 6 Узел от восточно-юго-восточный
Видимость 10 км и более
небольшая облачность на высоте 6000 фута
изменения
С 19-го 16 UTC до 19-го 18 UTC
Ветер 2 Узел переменных направлений
ясное небо

TAF: LOXZ 191415Z 1915/1924 12006KT 9999 FEW060 BECMG 1916/1918 VRB02KT SKC

Метеонаблюдения и прогнозы для более 4000 аэропортов (сводки METAR и TAF).

Имеющиеся станции представлены на карте желтыми и красными точками.

Чтобы увидеть название станции, наведите на нее мышь.

Затем щелкните, чтобы увидеть метеонаблюдения и метеопрогнозы.

Управление картой: чтобы увеличить масштаб, щелкните зеленые кнопки с черным крестиком; чтобы уменьшить масштаб, щелкните зеленую кнопку с тире; для просмотра соседних карт щелкайте зеленые стрелки.


METAR-TAF: